sensor_id;sensor_type;location;lat;lon;timestamp;P1;durP1;ratioP1;P2;durP2;ratioP2
16101;SDS011;56411;52.964;10.540;2023-02-08T00:00:05;48.33;;;23.00;;
16101;SDS011;56411;52.964;10.540;2023-02-08T00:02:34;44.23;;;23.00;;
16101;SDS011;56411;52.964;10.540;2023-02-08T00:05:01;51.80;;;24.33;;
16101;SDS011;56411;52.964;10.540;2023-02-08T00:07:28;46.50;;;22.73;;
16101;SDS011;56411;52.964;10.540;2023-02-08T00:09:55;48.57;;;23.93;;
16101;SDS011;56411;52.964;10.540;2023-02-08T00:12:22;44.27;;;23.10;;
16101;SDS011;56411;52.964;10.540;2023-02-08T00:14:49;47.03;;;24.63;;
16101;SDS011;56411;52.964;10.540;2023-02-08T00:17:16;51.27;;;24.73;;
16101;SDS011;56411;52.964;10.540;2023-02-08T00:19:44;50.50;;;25.80;;
16101;SDS011;56411;52.964;10.540;2023-02-08T00:22:11;50.90;;;25.20;;
16101;SDS011;56411;52.964;10.540;2023-02-08T00:24:38;51.97;;;24.63;;
16101;SDS011;56411;52.964;10.540;2023-02-08T00:27:05;51.57;;;24.23;;
16101;SDS011;56411;52.964;10.540;2023-02-08T00:29:32;50.97;;;23.13;;
16101;SDS011;56411;52.964;10.540;2023-02-08T00:31:59;49.60;;;23.33;;
16101;SDS011;56411;52.964;10.540;2023-02-08T00:34:26;53.83;;;24.30;;
16101;SDS011;56411;52.964;10.540;2023-02-08T00:36:54;54.00;;;24.83;;
16101;SDS011;56411;52.964;10.540;2023-02-08T00:39:21;54.20;;;25.07;;
16101;SDS011;56411;52.964;10.540;2023-02-08T00:41:48;48.73;;;22.87;;
16101;SDS011;56411;52.964;10.540;2023-02-08T00:44:15;49.40;;;23.50;;
16101;SDS011;56411;52.964;10.540;2023-02-08T00:46:42;51.13;;;25.23;;
16101;SDS011;56411;52.964;10.540;2023-02-08T00:49:09;48.00;;;23.17;;
16101;SDS011;56411;52.964;10.540;2023-02-08T00:51:36;51.30;;;24.30;;
16101;SDS011;56411;52.964;10.540;2023-02-08T00:54:05;48.90;;;24.37;;
16101;SDS011;56411;52.964;10.540;2023-02-08T00:56:32;56.33;;;24.97;;
16101;SDS011;56411;52.964;10.540;2023-02-08T00:58:58;52.23;;;25.13;;
16101;SDS011;56411;52.964;10.540;2023-02-08T01:01:25;52.37;;;24.63;;
16101;SDS011;56411;52.964;10.540;2023-02-08T01:03:52;56.97;;;26.47;;
16101;SDS011;56411;52.964;10.540;2023-02-08T01:06:19;58.30;;;26.70;;
16101;SDS011;56411;52.964;10.540;2023-02-08T01:08:46;51.50;;;26.07;;
16101;SDS011;56411;52.964;10.540;2023-02-08T01:11:15;57.17;;;25.83;;
16101;SDS011;56411;52.964;10.540;2023-02-08T01:13:45;58.03;;;25.67;;
16101;SDS011;56411;52.964;10.540;2023-02-08T01:16:13;62.23;;;27.30;;
16101;SDS011;56411;52.964;10.540;2023-02-08T01:18:42;56.00;;;26.27;;
16101;SDS011;56411;52.964;10.540;2023-02-08T01:21:11;58.47;;;27.00;;
16101;SDS011;56411;52.964;10.540;2023-02-08T01:23:40;66.80;;;27.90;;
16101;SDS011;56411;52.964;10.540;2023-02-08T01:26:09;67.57;;;28.57;;
16101;SDS011;56411;52.964;10.540;2023-02-08T01:28:37;70.83;;;29.57;;
16101;SDS011;56411;52.964;10.540;2023-02-08T01:31:05;68.13;;;29.43;;
16101;SDS011;56411;52.964;10.540;2023-02-08T01:33:33;64.40;;;28.90;;
16101;SDS011;56411;52.964;10.540;2023-02-08T01:36:00;76.17;;;30.87;;
16101;SDS011;56411;52.964;10.540;2023-02-08T01:38:27;76.37;;;32.00;;
16101;SDS011;56411;52.964;10.540;2023-02-08T01:40:54;72.50;;;31.93;;
16101;SDS011;56411;52.964;10.540;2023-02-08T01:43:23;75.33;;;32.10;;
16101;SDS011;56411;52.964;10.540;2023-02-08T01:45:53;73.17;;;31.80;;
16101;SDS011;56411;52.964;10.540;2023-02-08T01:48:22;91.53;;;33.53;;
16101;SDS011;56411;52.964;10.540;2023-02-08T01:50:56;82.60;;;32.13;;
16101;SDS011;56411;52.964;10.540;2023-02-08T01:53:27;84.43;;;32.67;;
16101;SDS011;56411;52.964;10.540;2023-02-08T01:55:56;83.37;;;32.97;;
16101;SDS011;56411;52.964;10.540;2023-02-08T01:58:27;79.07;;;32.63;;
16101;SDS011;56411;52.964;10.540;2023-02-08T02:00:57;84.13;;;32.50;;
16101;SDS011;56411;52.964;10.540;2023-02-08T02:03:25;82.83;;;32.73;;
16101;SDS011;56411;52.964;10.540;2023-02-08T02:05:53;78.23;;;32.53;;
16101;SDS011;56411;52.964;10.540;2023-02-08T02:08:26;83.47;;;33.03;;
16101;SDS011;56411;52.964;10.540;2023-02-08T02:10:53;81.07;;;32.40;;
16101;SDS011;56411;52.964;10.540;2023-02-08T02:13:20;87.57;;;33.10;;
16101;SDS011;56411;52.964;10.540;2023-02-08T02:15:49;78.93;;;31.93;;
16101;SDS011;56411;52.964;10.540;2023-02-08T02:18:19;89.87;;;34.77;;
16101;SDS011;56411;52.964;10.540;2023-02-08T02:20:57;91.13;;;34.27;;
16101;SDS011;56411;52.964;10.540;2023-02-08T02:24:02;85.20;;;33.77;;
16101;SDS011;56411;52.964;10.540;2023-02-08T02:29:46;85.23;;;32.60;;
16101;SDS011;56411;52.964;10.540;2023-02-08T02:32:32;84.53;;;33.43;;
16101;SDS011;56411;52.964;10.540;2023-02-08T02:35:11;81.30;;;31.30;;
16101;SDS011;56411;52.964;10.540;2023-02-08T02:37:46;86.93;;;34.00;;
16101;SDS011;56411;52.964;10.540;2023-02-08T02:40:21;86.60;;;33.17;;
16101;SDS011;56411;52.964;10.540;2023-02-08T02:42:57;80.77;;;33.07;;
16101;SDS011;56411;52.964;10.540;2023-02-08T02:45:48;74.13;;;31.03;;
16101;SDS011;56411;52.964;10.540;2023-02-08T02:48:27;85.60;;;32.90;;
16101;SDS011;56411;52.964;10.540;2023-02-08T02:51:05;89.47;;;34.30;;
16101;SDS011;56411;52.964;10.540;2023-02-08T02:53:38;87.13;;;33.83;;
16101;SDS011;56411;52.964;10.540;2023-02-08T02:56:11;85.03;;;33.93;;
16101;SDS011;56411;52.964;10.540;2023-02-08T02:58:40;84.00;;;32.73;;
16101;SDS011;56411;52.964;10.540;2023-02-08T03:01:08;88.07;;;33.67;;
16101;SDS011;56411;52.964;10.540;2023-02-08T03:03:36;78.87;;;33.27;;
16101;SDS011;56411;52.964;10.540;2023-02-08T03:06:05;84.03;;;33.17;;
16101;SDS011;56411;52.964;10.540;2023-02-08T03:08:44;79.63;;;32.70;;
16101;SDS011;56411;52.964;10.540;2023-02-08T03:11:24;85.90;;;32.73;;
16101;SDS011;56411;52.964;10.540;2023-02-08T03:13:56;85.50;;;33.43;;
16101;SDS011;56411;52.964;10.540;2023-02-08T03:16:31;94.00;;;35.03;;
16101;SDS011;56411;52.964;10.540;2023-02-08T03:19:13;94.10;;;34.03;;
16101;SDS011;56411;52.964;10.540;2023-02-08T03:21:46;89.30;;;34.13;;
16101;SDS011;56411;52.964;10.540;2023-02-08T03:24:21;84.90;;;32.37;;
16101;SDS011;56411;52.964;10.540;2023-02-08T03:26:53;100.70;;;35.30;;
16101;SDS011;56411;52.964;10.540;2023-02-08T03:29:26;98.43;;;36.93;;
16101;SDS011;56411;52.964;10.540;2023-02-08T03:32:03;101.43;;;36.63;;
16101;SDS011;56411;52.964;10.540;2023-02-08T03:34:38;96.40;;;36.20;;
16101;SDS011;56411;52.964;10.540;2023-02-08T03:37:13;106.70;;;35.83;;
16101;SDS011;56411;52.964;10.540;2023-02-08T03:39:43;104.80;;;35.63;;
16101;SDS011;56411;52.964;10.540;2023-02-08T03:42:15;97.80;;;35.53;;
16101;SDS011;56411;52.964;10.540;2023-02-08T03:44:45;98.13;;;35.77;;
16101;SDS011;56411;52.964;10.540;2023-02-08T03:47:17;98.63;;;36.17;;
16101;SDS011;56411;52.964;10.540;2023-02-08T03:49:48;97.90;;;35.23;;
16101;SDS011;56411;52.964;10.540;2023-02-08T03:52:18;86.03;;;34.03;;
16101;SDS011;56411;52.964;10.540;2023-02-08T03:54:48;93.63;;;35.40;;
16101;SDS011;56411;52.964;10.540;2023-02-08T03:57:20;88.87;;;33.63;;
16101;SDS011;56411;52.964;10.540;2023-02-08T03:59:51;94.70;;;34.77;;
16101;SDS011;56411;52.964;10.540;2023-02-08T04:02:22;92.60;;;35.57;;
16101;SDS011;56411;52.964;10.540;2023-02-08T04:04:54;90.63;;;34.97;;
16101;SDS011;56411;52.964;10.540;2023-02-08T04:07:23;86.37;;;32.70;;
16101;SDS011;56411;52.964;10.540;2023-02-08T04:09:50;90.17;;;34.60;;
16101;SDS011;56411;52.964;10.540;2023-02-08T04:12:17;95.80;;;35.30;;
16101;SDS011;56411;52.964;10.540;2023-02-08T04:14:44;104.83;;;36.47;;
16101;SDS011;56411;52.964;10.540;2023-02-08T04:17:11;93.97;;;35.73;;
16101;SDS011;56411;52.964;10.540;2023-02-08T04:19:38;99.90;;;36.57;;
16101;SDS011;56411;52.964;10.540;2023-02-08T04:22:06;100.87;;;35.80;;
16101;SDS011;56411;52.964;10.540;2023-02-08T04:24:33;104.37;;;35.60;;
16101;SDS011;56411;52.964;10.540;2023-02-08T04:27:00;90.77;;;36.13;;
16101;SDS011;56411;52.964;10.540;2023-02-08T04:29:27;94.27;;;37.40;;
16101;SDS011;56411;52.964;10.540;2023-02-08T04:31:54;96.53;;;35.97;;
16101;SDS011;56411;52.964;10.540;2023-02-08T04:34:21;97.00;;;36.07;;
16101;SDS011;56411;52.964;10.540;2023-02-08T04:36:48;85.83;;;33.93;;
16101;SDS011;56411;52.964;10.540;2023-02-08T04:39:16;93.03;;;35.53;;
16101;SDS011;56411;52.964;10.540;2023-02-08T04:41:43;88.40;;;33.73;;
16101;SDS011;56411;52.964;10.540;2023-02-08T04:44:10;91.20;;;34.80;;
16101;SDS011;56411;52.964;10.540;2023-02-08T04:46:38;94.90;;;34.00;;
16101;SDS011;56411;52.964;10.540;2023-02-08T04:49:05;79.10;;;33.93;;
16101;SDS011;56411;52.964;10.540;2023-02-08T04:51:32;99.40;;;35.27;;
16101;SDS011;56411;52.964;10.540;2023-02-08T04:53:59;89.67;;;36.03;;
16101;SDS011;56411;52.964;10.540;2023-02-08T04:56:27;96.20;;;34.63;;
16101;SDS011;56411;52.964;10.540;2023-02-08T04:58:55;93.43;;;35.33;;
16101;SDS011;56411;52.964;10.540;2023-02-08T05:01:22;93.17;;;36.77;;
16101;SDS011;56411;52.964;10.540;2023-02-08T05:03:49;97.53;;;37.00;;
16101;SDS011;56411;52.964;10.540;2023-02-08T05:06:16;93.07;;;36.63;;
16101;SDS011;56411;52.964;10.540;2023-02-08T05:08:45;101.60;;;37.73;;
16101;SDS011;56411;52.964;10.540;2023-02-08T05:11:12;99.13;;;36.50;;
16101;SDS011;56411;52.964;10.540;2023-02-08T05:13:46;94.43;;;36.03;;
16101;SDS011;56411;52.964;10.540;2023-02-08T05:16:13;101.40;;;36.30;;
16101;SDS011;56411;52.964;10.540;2023-02-08T05:18:40;97.80;;;36.37;;
16101;SDS011;56411;52.964;10.540;2023-02-08T05:21:07;96.87;;;36.73;;
16101;SDS011;56411;52.964;10.540;2023-02-08T05:23:35;111.27;;;36.90;;
16101;SDS011;56411;52.964;10.540;2023-02-08T05:26:04;103.47;;;36.20;;
16101;SDS011;56411;52.964;10.540;2023-02-08T05:28:32;104.90;;;37.17;;
16101;SDS011;56411;52.964;10.540;2023-02-08T05:31:00;105.97;;;38.17;;
16101;SDS011;56411;52.964;10.540;2023-02-08T05:33:34;116.60;;;39.53;;
16101;SDS011;56411;52.964;10.540;2023-02-08T05:36:01;110.03;;;38.87;;
16101;SDS011;56411;52.964;10.540;2023-02-08T05:38:29;108.83;;;38.97;;
16101;SDS011;56411;52.964;10.540;2023-02-08T05:40:55;123.13;;;41.63;;
16101;SDS011;56411;52.964;10.540;2023-02-08T05:43:22;107.63;;;38.70;;
16101;SDS011;56411;52.964;10.540;2023-02-08T05:45:50;110.30;;;39.83;;
16101;SDS011;56411;52.964;10.540;2023-02-08T05:48:18;121.87;;;41.40;;
16101;SDS011;56411;52.964;10.540;2023-02-08T05:50:45;122.00;;;40.13;;
16101;SDS011;56411;52.964;10.540;2023-02-08T05:53:12;114.97;;;39.60;;
16101;SDS011;56411;52.964;10.540;2023-02-08T05:55:39;128.13;;;41.33;;
16101;SDS011;56411;52.964;10.540;2023-02-08T05:58:09;140.03;;;41.80;;
16101;SDS011;56411;52.964;10.540;2023-02-08T06:00:36;120.27;;;39.03;;
16101;SDS011;56411;52.964;10.540;2023-02-08T06:03:03;113.27;;;40.37;;
16101;SDS011;56411;52.964;10.540;2023-02-08T06:05:31;125.20;;;40.93;;
16101;SDS011;56411;52.964;10.540;2023-02-08T06:07:59;123.23;;;39.87;;
16101;SDS011;56411;52.964;10.540;2023-02-08T06:10:26;137.17;;;41.67;;
16101;SDS011;56411;52.964;10.540;2023-02-08T06:12:53;119.20;;;39.87;;
16101;SDS011;56411;52.964;10.540;2023-02-08T06:15:20;112.70;;;38.57;;
16101;SDS011;56411;52.964;10.540;2023-02-08T06:17:47;126.97;;;40.77;;
16101;SDS011;56411;52.964;10.540;2023-02-08T06:20:14;123.90;;;39.50;;
16101;SDS011;56411;52.964;10.540;2023-02-08T06:22:43;117.30;;;39.23;;
16101;SDS011;56411;52.964;10.540;2023-02-08T06:25:10;112.53;;;39.30;;
16101;SDS011;56411;52.964;10.540;2023-02-08T06:27:37;116.50;;;39.37;;
16101;SDS011;56411;52.964;10.540;2023-02-08T06:30:04;112.37;;;39.20;;
16101;SDS011;56411;52.964;10.540;2023-02-08T06:32:31;103.33;;;36.90;;
16101;SDS011;56411;52.964;10.540;2023-02-08T06:34:58;122.43;;;39.60;;
16101;SDS011;56411;52.964;10.540;2023-02-08T06:37:25;122.50;;;39.83;;
16101;SDS011;56411;52.964;10.540;2023-02-08T06:39:53;121.40;;;38.73;;
16101;SDS011;56411;52.964;10.540;2023-02-08T06:42:20;111.30;;;40.80;;
16101;SDS011;56411;52.964;10.540;2023-02-08T06:44:47;122.00;;;42.43;;
16101;SDS011;56411;52.964;10.540;2023-02-08T06:47:14;114.40;;;42.27;;
16101;SDS011;56411;52.964;10.540;2023-02-08T06:49:41;113.47;;;39.77;;
16101;SDS011;56411;52.964;10.540;2023-02-08T06:52:08;114.27;;;41.13;;
16101;SDS011;56411;52.964;10.540;2023-02-08T06:54:35;126.60;;;40.70;;
16101;SDS011;56411;52.964;10.540;2023-02-08T06:57:04;113.47;;;41.03;;
16101;SDS011;56411;52.964;10.540;2023-02-08T06:59:32;111.53;;;40.53;;
16101;SDS011;56411;52.964;10.540;2023-02-08T07:01:59;110.70;;;39.20;;
16101;SDS011;56411;52.964;10.540;2023-02-08T07:04:26;106.30;;;38.47;;
16101;SDS011;56411;52.964;10.540;2023-02-08T07:06:53;94.83;;;36.87;;
16101;SDS011;56411;52.964;10.540;2023-02-08T07:09:20;109.93;;;38.67;;
16101;SDS011;56411;52.964;10.540;2023-02-08T07:11:47;106.73;;;37.57;;
16101;SDS011;56411;52.964;10.540;2023-02-08T07:14:15;112.43;;;39.23;;
16101;SDS011;56411;52.964;10.540;2023-02-08T07:16:42;121.97;;;39.83;;
16101;SDS011;56411;52.964;10.540;2023-02-08T07:19:09;109.70;;;38.70;;
16101;SDS011;56411;52.964;10.540;2023-02-08T07:21:36;108.57;;;38.57;;
16101;SDS011;56411;52.964;10.540;2023-02-08T07:24:03;119.03;;;40.83;;
16101;SDS011;56411;52.964;10.540;2023-02-08T07:26:30;113.67;;;42.40;;
16101;SDS011;56411;52.964;10.540;2023-02-08T07:28:57;113.23;;;42.80;;
16101;SDS011;56411;52.964;10.540;2023-02-08T07:31:26;120.50;;;40.97;;
16101;SDS011;56411;52.964;10.540;2023-02-08T07:33:53;115.00;;;40.17;;
16101;SDS011;56411;52.964;10.540;2023-02-08T07:36:19;110.07;;;40.30;;
16101;SDS011;56411;52.964;10.540;2023-02-08T07:38:46;109.07;;;39.37;;
16101;SDS011;56411;52.964;10.540;2023-02-08T07:41:13;120.63;;;40.70;;
16101;SDS011;56411;52.964;10.540;2023-02-08T07:43:41;117.50;;;40.50;;
16101;SDS011;56411;52.964;10.540;2023-02-08T07:46:08;115.53;;;38.60;;
16101;SDS011;56411;52.964;10.540;2023-02-08T07:48:37;113.97;;;40.07;;
16101;SDS011;56411;52.964;10.540;2023-02-08T07:51:05;112.30;;;38.90;;
16101;SDS011;56411;52.964;10.540;2023-02-08T07:53:33;113.70;;;38.90;;
16101;SDS011;56411;52.964;10.540;2023-02-08T07:56:00;109.63;;;38.30;;
16101;SDS011;56411;52.964;10.540;2023-02-08T07:58:27;120.63;;;39.17;;
16101;SDS011;56411;52.964;10.540;2023-02-08T08:00:54;108.57;;;37.20;;
16101;SDS011;56411;52.964;10.540;2023-02-08T08:03:21;106.13;;;38.67;;
16101;SDS011;56411;52.964;10.540;2023-02-08T08:05:50;103.27;;;37.37;;
16101;SDS011;56411;52.964;10.540;2023-02-08T08:08:18;106.23;;;37.40;;
16101;SDS011;56411;52.964;10.540;2023-02-08T08:10:45;102.03;;;37.77;;
16101;SDS011;56411;52.964;10.540;2023-02-08T08:13:13;107.27;;;38.70;;
16101;SDS011;56411;52.964;10.540;2023-02-08T08:15:40;101.97;;;38.20;;
16101;SDS011;56411;52.964;10.540;2023-02-08T08:18:07;100.67;;;37.13;;
16101;SDS011;56411;52.964;10.540;2023-02-08T08:20:34;100.80;;;35.17;;
16101;SDS011;56411;52.964;10.540;2023-02-08T08:23:02;98.40;;;37.00;;
16101;SDS011;56411;52.964;10.540;2023-02-08T08:25:30;94.43;;;33.83;;
16101;SDS011;56411;52.964;10.540;2023-02-08T08:27:57;86.53;;;34.07;;
16101;SDS011;56411;52.964;10.540;2023-02-08T08:30:26;88.00;;;34.03;;
16101;SDS011;56411;52.964;10.540;2023-02-08T08:32:53;89.90;;;34.87;;
16101;SDS011;56411;52.964;10.540;2023-02-08T08:35:20;84.70;;;32.53;;
16101;SDS011;56411;52.964;10.540;2023-02-08T08:37:47;85.93;;;33.17;;
16101;SDS011;56411;52.964;10.540;2023-02-08T08:40:15;77.97;;;30.63;;
16101;SDS011;56411;52.964;10.540;2023-02-08T08:42:42;81.97;;;34.23;;
16101;SDS011;56411;52.964;10.540;2023-02-08T08:45:09;82.90;;;33.07;;
16101;SDS011;56411;52.964;10.540;2023-02-08T08:47:37;82.17;;;32.97;;
16101;SDS011;56411;52.964;10.540;2023-02-08T08:50:04;79.73;;;31.77;;
16101;SDS011;56411;52.964;10.540;2023-02-08T08:52:31;80.43;;;32.60;;
16101;SDS011;56411;52.964;10.540;2023-02-08T08:54:58;76.57;;;33.10;;
16101;SDS011;56411;52.964;10.540;2023-02-08T08:57:26;76.07;;;32.53;;
16101;SDS011;56411;52.964;10.540;2023-02-08T08:59:53;81.73;;;33.93;;
16101;SDS011;56411;52.964;10.540;2023-02-08T09:02:20;76.27;;;33.03;;
16101;SDS011;56411;52.964;10.540;2023-02-08T09:04:47;71.33;;;29.73;;
16101;SDS011;56411;52.964;10.540;2023-02-08T09:07:14;58.50;;;26.90;;
16101;SDS011;56411;52.964;10.540;2023-02-08T09:09:41;69.23;;;33.83;;
16101;SDS011;56411;52.964;10.540;2023-02-08T09:12:13;68.23;;;33.23;;
16101;SDS011;56411;52.964;10.540;2023-02-08T09:14:42;67.50;;;30.30;;
16101;SDS011;56411;52.964;10.540;2023-02-08T09:17:09;64.87;;;27.50;;
16101;SDS011;56411;52.964;10.540;2023-02-08T09:19:37;58.40;;;27.50;;
16101;SDS011;56411;52.964;10.540;2023-02-08T09:22:04;61.77;;;27.37;;
16101;SDS011;56411;52.964;10.540;2023-02-08T09:24:31;59.27;;;27.07;;
16101;SDS011;56411;52.964;10.540;2023-02-08T09:26:59;61.50;;;26.37;;
16101;SDS011;56411;52.964;10.540;2023-02-08T09:29:25;56.43;;;25.63;;
16101;SDS011;56411;52.964;10.540;2023-02-08T09:31:55;61.27;;;27.53;;
16101;SDS011;56411;52.964;10.540;2023-02-08T09:34:22;55.70;;;25.30;;
16101;SDS011;56411;52.964;10.540;2023-02-08T09:36:49;55.03;;;26.30;;
16101;SDS011;56411;52.964;10.540;2023-02-08T09:39:18;52.03;;;25.07;;
16101;SDS011;56411;52.964;10.540;2023-02-08T09:41:51;57.17;;;25.47;;
16101;SDS011;56411;52.964;10.540;2023-02-08T09:44:30;55.80;;;24.77;;
16101;SDS011;56411;52.964;10.540;2023-02-08T09:47:05;53.43;;;24.93;;
16101;SDS011;56411;52.964;10.540;2023-02-08T09:49:38;52.83;;;25.07;;
16101;SDS011;56411;52.964;10.540;2023-02-08T09:52:09;49.83;;;22.40;;
16101;SDS011;56411;52.964;10.540;2023-02-08T09:54:42;44.63;;;22.10;;
16101;SDS011;56411;52.964;10.540;2023-02-08T09:57:15;47.77;;;22.87;;
16101;SDS011;56411;52.964;10.540;2023-02-08T09:59:48;49.80;;;23.43;;
16101;SDS011;56411;52.964;10.540;2023-02-08T10:02:23;49.73;;;23.67;;
16101;SDS011;56411;52.964;10.540;2023-02-08T10:04:56;48.60;;;23.03;;
16101;SDS011;56411;52.964;10.540;2023-02-08T10:07:25;47.83;;;22.00;;
16101;SDS011;56411;52.964;10.540;2023-02-08T10:09:53;47.53;;;21.93;;
16101;SDS011;56411;52.964;10.540;2023-02-08T10:12:26;50.87;;;23.23;;
16101;SDS011;56411;52.964;10.540;2023-02-08T10:15:03;47.67;;;22.13;;
16101;SDS011;56411;52.964;10.540;2023-02-08T10:20:45;50.87;;;22.53;;
16101;SDS011;56411;52.964;10.540;2023-02-08T10:23:25;46.13;;;22.47;;
16101;SDS011;56411;52.964;10.540;2023-02-08T10:26:06;47.77;;;22.97;;
16101;SDS011;56411;52.964;10.540;2023-02-08T10:31:43;47.10;;;23.73;;
16101;SDS011;56411;52.964;10.540;2023-02-08T10:34:23;51.40;;;23.23;;
16101;SDS011;56411;52.964;10.540;2023-02-08T10:36:57;47.50;;;22.70;;
16101;SDS011;56411;52.964;10.540;2023-02-08T10:39:27;49.60;;;24.00;;
16101;SDS011;56411;52.964;10.540;2023-02-08T10:41:57;46.07;;;23.40;;
16101;SDS011;56411;52.964;10.540;2023-02-08T10:44:27;48.17;;;24.83;;
16101;SDS011;56411;52.964;10.540;2023-02-08T10:47:01;50.23;;;24.90;;
16101;SDS011;56411;52.964;10.540;2023-02-08T10:49:39;48.87;;;24.80;;
16101;SDS011;56411;52.964;10.540;2023-02-08T10:52:12;47.20;;;23.10;;
16101;SDS011;56411;52.964;10.540;2023-02-08T10:54:39;42.63;;;22.60;;
16101;SDS011;56411;52.964;10.540;2023-02-08T10:57:09;44.10;;;22.57;;
16101;SDS011;56411;52.964;10.540;2023-02-08T10:59:45;44.00;;;22.87;;
16101;SDS011;56411;52.964;10.540;2023-02-08T11:02:18;46.03;;;22.97;;
16101;SDS011;56411;52.964;10.540;2023-02-08T11:04:58;40.93;;;22.60;;
16101;SDS011;56411;52.964;10.540;2023-02-08T11:07:27;42.20;;;20.33;;
16101;SDS011;56411;52.964;10.540;2023-02-08T11:09:57;43.13;;;20.77;;
16101;SDS011;56411;52.964;10.540;2023-02-08T11:12:41;43.20;;;23.00;;
16101;SDS011;56411;52.964;10.540;2023-02-08T11:15:20;39.20;;;20.80;;
16101;SDS011;56411;52.964;10.540;2023-02-08T11:17:52;38.10;;;20.40;;
16101;SDS011;56411;52.964;10.540;2023-02-08T11:20:24;36.00;;;20.23;;
16101;SDS011;56411;52.964;10.540;2023-02-08T11:22:56;38.60;;;20.70;;
16101;SDS011;56411;52.964;10.540;2023-02-08T11:25:31;35.90;;;18.63;;
16101;SDS011;56411;52.964;10.540;2023-02-08T11:28:00;35.10;;;18.40;;
16101;SDS011;56411;52.964;10.540;2023-02-08T11:30:28;31.63;;;17.73;;
16101;SDS011;56411;52.964;10.540;2023-02-08T11:33:16;30.50;;;17.23;;
16101;SDS011;56411;52.964;10.540;2023-02-08T11:35:59;32.97;;;17.63;;
16101;SDS011;56411;52.964;10.540;2023-02-08T11:38:29;30.10;;;16.87;;
16101;SDS011;56411;52.964;10.540;2023-02-08T11:40:58;32.53;;;17.40;;
16101;SDS011;56411;52.964;10.540;2023-02-08T11:43:28;29.90;;;16.40;;
16101;SDS011;56411;52.964;10.540;2023-02-08T11:45:57;26.43;;;15.87;;
16101;SDS011;56411;52.964;10.540;2023-02-08T11:48:28;26.73;;;14.50;;
16101;SDS011;56411;52.964;10.540;2023-02-08T11:51:03;28.00;;;14.47;;
16101;SDS011;56411;52.964;10.540;2023-02-08T11:53:31;23.63;;;13.87;;
16101;SDS011;56411;52.964;10.540;2023-02-08T11:56:02;27.57;;;14.70;;
16101;SDS011;56411;52.964;10.540;2023-02-08T11:58:31;26.40;;;14.33;;
16101;SDS011;56411;52.964;10.540;2023-02-08T12:00:59;25.80;;;14.50;;
16101;SDS011;56411;52.964;10.540;2023-02-08T12:03:29;26.30;;;14.37;;
16101;SDS011;56411;52.964;10.540;2023-02-08T12:06:04;27.30;;;14.87;;
16101;SDS011;56411;52.964;10.540;2023-02-08T12:09:06;26.77;;;14.40;;
16101;SDS011;56411;52.964;10.540;2023-02-08T12:11:46;26.80;;;14.90;;
16101;SDS011;56411;52.964;10.540;2023-02-08T12:14:34;28.10;;;15.17;;
16101;SDS011;56411;52.964;10.540;2023-02-08T12:17:15;24.77;;;14.07;;
16101;SDS011;56411;52.964;10.540;2023-02-08T12:20:07;24.80;;;13.50;;
16101;SDS011;56411;52.964;10.540;2023-02-08T12:22:56;25.83;;;14.13;;
16101;SDS011;56411;52.964;10.540;2023-02-08T12:25:39;27.63;;;15.13;;
16101;SDS011;56411;52.964;10.540;2023-02-08T12:28:13;25.67;;;14.63;;
16101;SDS011;56411;52.964;10.540;2023-02-08T12:30:50;26.30;;;15.00;;
16101;SDS011;56411;52.964;10.540;2023-02-08T12:33:30;25.47;;;14.53;;
16101;SDS011;56411;52.964;10.540;2023-02-08T12:36:14;26.70;;;14.63;;
16101;SDS011;56411;52.964;10.540;2023-02-08T12:42:18;26.02;;;14.95;;
16101;SDS011;56411;52.964;10.540;2023-02-08T12:45:01;27.83;;;14.88;;
16101;SDS011;56411;52.964;10.540;2023-02-08T12:47:41;27.13;;;14.83;;
16101;SDS011;56411;52.964;10.540;2023-02-08T12:50:19;25.95;;;14.80;;
16101;SDS011;56411;52.964;10.540;2023-02-08T12:52:55;24.38;;;14.43;;
16101;SDS011;56411;52.964;10.540;2023-02-08T12:55:29;23.10;;;13.77;;
16101;SDS011;56411;52.964;10.540;2023-02-08T12:58:01;25.33;;;14.82;;
16101;SDS011;56411;52.964;10.540;2023-02-08T13:00:33;26.05;;;14.07;;
16101;SDS011;56411;52.964;10.540;2023-02-08T13:03:09;22.52;;;13.20;;
16101;SDS011;56411;52.964;10.540;2023-02-08T13:05:52;24.45;;;13.52;;
16101;SDS011;56411;52.964;10.540;2023-02-08T13:08:22;21.70;;;13.35;;
16101;SDS011;56411;52.964;10.540;2023-02-08T13:10:57;23.65;;;12.68;;
16101;SDS011;56411;52.964;10.540;2023-02-08T13:13:30;21.90;;;12.60;;
16101;SDS011;56411;52.964;10.540;2023-02-08T13:16:02;21.25;;;12.23;;
16101;SDS011;56411;52.964;10.540;2023-02-08T13:18:35;20.30;;;11.32;;
16101;SDS011;56411;52.964;10.540;2023-02-08T13:21:07;21.13;;;11.77;;
16101;SDS011;56411;52.964;10.540;2023-02-08T13:23:40;21.67;;;12.50;;
16101;SDS011;56411;52.964;10.540;2023-02-08T13:26:12;21.08;;;11.55;;
16101;SDS011;56411;52.964;10.540;2023-02-08T13:28:44;20.25;;;11.05;;
16101;SDS011;56411;52.964;10.540;2023-02-08T13:31:14;21.02;;;12.00;;
16101;SDS011;56411;52.964;10.540;2023-02-08T13:33:44;22.58;;;12.13;;
16101;SDS011;56411;52.964;10.540;2023-02-08T13:36:18;20.83;;;11.98;;
16101;SDS011;56411;52.964;10.540;2023-02-08T13:38:49;20.58;;;11.15;;
16101;SDS011;56411;52.964;10.540;2023-02-08T13:41:19;21.40;;;12.07;;
16101;SDS011;56411;52.964;10.540;2023-02-08T13:43:48;21.30;;;12.25;;
16101;SDS011;56411;52.964;10.540;2023-02-08T13:46:18;22.27;;;13.07;;
16101;SDS011;56411;52.964;10.540;2023-02-08T13:48:47;22.83;;;13.27;;
16101;SDS011;56411;52.964;10.540;2023-02-08T13:54:19;23.35;;;13.80;;
16101;SDS011;56411;52.964;10.540;2023-02-08T13:56:48;21.90;;;13.43;;
16101;SDS011;56411;52.964;10.540;2023-02-08T13:59:24;21.35;;;12.88;;
16101;SDS011;56411;52.964;10.540;2023-02-08T14:04:52;22.75;;;13.65;;
16101;SDS011;56411;52.964;10.540;2023-02-08T14:07:28;23.15;;;13.35;;
16101;SDS011;56411;52.964;10.540;2023-02-08T14:10:06;24.45;;;15.20;;
16101;SDS011;56411;52.964;10.540;2023-02-08T14:12:51;22.50;;;13.02;;
16101;SDS011;56411;52.964;10.540;2023-02-08T14:15:23;23.27;;;13.50;;
16101;SDS011;56411;52.964;10.540;2023-02-08T14:17:52;29.48;;;18.83;;
16101;SDS011;56411;52.964;10.540;2023-02-08T14:20:23;26.70;;;16.92;;
16101;SDS011;56411;52.964;10.540;2023-02-08T14:22:53;28.85;;;18.95;;
16101;SDS011;56411;52.964;10.540;2023-02-08T14:25:24;22.38;;;13.45;;
16101;SDS011;56411;52.964;10.540;2023-02-08T14:27:54;21.83;;;13.93;;
16101;SDS011;56411;52.964;10.540;2023-02-08T14:30:24;24.33;;;14.82;;
16101;SDS011;56411;52.964;10.540;2023-02-08T14:33:07;29.52;;;19.52;;
16101;SDS011;56411;52.964;10.540;2023-02-08T14:35:40;35.42;;;23.77;;
16101;SDS011;56411;52.964;10.540;2023-02-08T14:41:41;27.98;;;17.20;;
16101;SDS011;56411;52.964;10.540;2023-02-08T14:50:22;26.63;;;17.75;;
16101;SDS011;56411;52.964;10.540;2023-02-08T14:52:55;28.30;;;17.73;;